Time;durP1;ratioP1;P1;durP2;ratioP2;P2;SDS_P1;SDS_P2;PMS_P1;PMS_P2;Temp;Humidity;BMP_temperature;BMP_pressure;BME280_temperature;BME280_humidity;BME280_pressure;Samples;Min_cycle;Max_cycle;Signal;HPM_P1;HPM_P2
2023/04/25 00:00:34;;;;;;;19.67;17.42;;;;;;;;;;5012102;28;20026;-72
2023/04/25 00:02:59;;;;;;;19.98;17.48;;;;;;;;;;5003348;28;20133;-75
2023/04/25 00:05:25;;;;;;;21.27;18.10;;;;;;;;;;5012819;28;20129;-74
2023/04/25 00:07:51;;;;;;;17.73;14.70;;;;;;;;;;5001888;28;20025;-72
2023/04/25 00:10:16;;;;;;;15.55;13.60;;;;;;;;;;5011789;28;20032;-72
2023/04/25 00:12:41;;;;;;;18.73;12.40;;;;;;;;;;5012856;28;20049;-71
2023/04/25 00:15:07;;;;;;;11.30;9.90;;;;;;;;;;5014017;28;20040;-71
2023/04/25 00:17:34;;;;;;;14.10;11.00;;;;;;;;;;5003130;28;20029;-72
2023/04/25 00:20:00;;;;;;;16.55;10.95;;;;;;;;;;5009513;28;20037;-72
2023/04/25 00:22:25;;;;;;;9.52;8.45;;;;;;;;;;5014256;28;20033;-72
2023/04/25 00:24:53;;;;;;;10.23;8.48;;;;;;;;;;5004903;28;20029;-75
2023/04/25 00:27:18;;;;;;;11.02;6.60;;;;;;;;;;5016778;28;20108;-76
2023/04/25 00:29:43;;;;;;;6.82;5.90;;;;;;;;;;5015771;28;20132;-73
2023/04/25 00:32:09;;;;;;;8.90;6.95;;;;;;;;;;5006065;28;20033;-76
2023/04/25 00:34:35;;;;;;;6.82;6.22;;;;;;;;;;5010007;28;20029;-72
2023/04/25 00:37:01;;;;;;;7.85;5.70;;;;;;;;;;5018040;28;20048;-73
2023/04/25 00:39:27;;;;;;;8.13;5.07;;;;;;;;;;5016226;28;20094;-72
2023/04/25 00:41:54;;;;;;;14.77;9.30;;;;;;;;;;5012598;28;20033;-73
2023/04/25 00:44:20;;;;;;;27.00;15.93;;;;;;;;;;5002284;28;20093;-72
2023/04/25 00:46:47;;;;;;;10.38;6.68;;;;;;;;;;5015530;28;20404;-71
2023/04/25 00:49:15;;;;;;;8.68;7.57;;;;;;;;;;5015227;28;20021;-75
2023/04/25 00:51:41;;;;;;;7.57;5.50;;;;;;;;;;5010766;28;20708;-73
2023/04/25 00:54:06;;;;;;;6.20;5.38;;;;;;;;;;5009917;28;20018;-73
2023/04/25 00:56:31;;;;;;;7.10;5.13;;;;;;;;;;5008868;28;20057;-72
2023/04/25 00:58:57;;;;;;;6.07;5.30;;;;;;;;;;5009364;28;20338;-77
2023/04/25 01:01:22;;;;;;;4.13;3.30;;;;;;;;;;5001449;28;20440;-71
2023/04/25 01:03:49;;;;;;;4.10;3.70;;;;;;;;;;5003009;28;20042;-74
2023/04/25 01:06:15;;;;;;;3.83;3.42;;;;;;;;;;5013474;28;20097;-71
2023/04/25 01:08:40;;;;;;;4.68;3.92;;;;;;;;;;5007423;28;20045;-75
2023/04/25 01:11:06;;;;;;;3.85;3.53;;;;;;;;;;5014676;28;20039;-72
2023/04/25 01:13:31;;;;;;;6.78;4.18;;;;;;;;;;5015426;28;20029;-71
2023/04/25 01:15:57;;;;;;;5.32;4.82;;;;;;;;;;5013264;28;20026;-71
2023/04/25 01:18:23;;;;;;;5.97;4.95;;;;;;;;;;5005518;28;20044;-72
2023/04/25 01:20:50;;;;;;;6.60;4.93;;;;;;;;;;5014291;28;20071;-72
2023/04/25 01:23:15;;;;;;;8.82;4.78;;;;;;;;;;5005592;28;20026;-72
2023/04/25 01:25:41;;;;;;;5.93;3.95;;;;;;;;;;5016767;28;20040;-72
2023/04/25 01:28:07;;;;;;;4.55;3.50;;;;;;;;;;5015617;28;20140;-73
2023/04/25 01:30:33;;;;;;;6.90;5.50;;;;;;;;;;5013570;28;20353;-74
2023/04/25 01:32:58;;;;;;;9.93;6.60;;;;;;;;;;5015611;28;20051;-72
2023/04/25 01:35:24;;;;;;;7.93;6.60;;;;;;;;;;5006629;28;20033;-74
2023/04/25 01:37:50;;;;;;;7.82;6.40;;;;;;;;;;5012491;28;20025;-72
2023/04/25 01:40:18;;;;;;;14.45;9.55;;;;;;;;;;5015703;28;20452;-72
2023/04/25 01:42:44;;;;;;;11.32;9.07;;;;;;;;;;5014669;28;20087;-72
2023/04/25 01:45:10;;;;;;;12.52;9.20;;;;;;;;;;5015509;28;20033;-74
2023/04/25 01:47:36;;;;;;;11.85;8.05;;;;;;;;;;5014014;28;20117;-71
2023/04/25 01:50:05;;;;;;;7.10;5.88;;;;;;;;;;5006758;28;20191;-71
2023/04/25 01:52:31;;;;;;;6.93;5.70;;;;;;;;;;5013761;28;20045;-71
2023/04/25 01:54:57;;;;;;;8.05;6.60;;;;;;;;;;5014298;28;20348;-73
2023/04/25 01:57:22;;;;;;;8.20;7.40;;;;;;;;;;5007522;28;20033;-73
2023/04/25 01:59:48;;;;;;;9.60;8.27;;;;;;;;;;5006146;28;20033;-70
2023/04/25 02:02:13;;;;;;;8.18;6.50;;;;;;;;;;5008602;28;20022;-74
2023/04/25 02:04:38;;;;;;;10.68;9.27;;;;;;;;;;5001890;28;20418;-73
2023/04/25 02:07:04;;;;;;;13.32;9.05;;;;;;;;;;5002503;28;20034;-71
2023/04/25 02:09:29;;;;;;;10.25;8.75;;;;;;;;;;5002214;28;20029;-72
2023/04/25 02:11:54;;;;;;;7.82;6.13;;;;;;;;;;5001458;28;20108;-71
2023/04/25 02:14:20;;;;;;;5.18;4.65;;;;;;;;;;5007329;28;20125;-72
2023/04/25 02:16:46;;;;;;;11.40;7.68;;;;;;;;;;5016255;28;20394;-71
2023/04/25 02:19:11;;;;;;;18.95;9.57;;;;;;;;;;5004985;28;20032;-71
2023/04/25 02:21:36;;;;;;;10.10;7.20;;;;;;;;;;5014665;28;20104;-72
2023/04/25 02:24:02;;;;;;;7.97;7.03;;;;;;;;;;5014287;28;20454;-74
2023/04/25 02:26:27;;;;;;;11.65;8.57;;;;;;;;;;5013516;28;20440;-71
2023/04/25 02:28:53;;;;;;;9.05;7.43;;;;;;;;;;5015874;28;20472;-75
2023/04/25 02:31:18;;;;;;;12.85;8.18;;;;;;;;;;5015338;28;20429;-73
2023/04/25 02:33:44;;;;;;;11.38;8.60;;;;;;;;;;5016369;28;20419;-73
2023/04/25 02:36:09;;;;;;;10.20;7.88;;;;;;;;;;5009126;28;20030;-72
2023/04/25 02:38:34;;;;;;;6.20;4.47;;;;;;;;;;5010208;28;20097;-73
2023/04/25 02:41:00;;;;;;;8.95;7.35;;;;;;;;;;5012172;28;20047;-72
2023/04/25 02:43:25;;;;;;;9.20;7.85;;;;;;;;;;5004888;28;20028;-73
2023/04/25 02:45:51;;;;;;;8.90;7.90;;;;;;;;;;5014987;28;20065;-76
2023/04/25 02:48:16;;;;;;;7.43;5.60;;;;;;;;;;5012032;28;20037;-76
2023/04/25 02:50:42;;;;;;;5.53;4.32;;;;;;;;;;5014300;28;20030;-73
2023/04/25 02:53:07;;;;;;;6.93;3.65;;;;;;;;;;5003049;28;20436;-75
2023/04/25 02:55:32;;;;;;;3.50;3.20;;;;;;;;;;5013285;28;20032;-73
2023/04/25 02:57:58;;;;;;;3.58;3.15;;;;;;;;;;5012332;28;20432;-72
2023/04/25 03:00:24;;;;;;;4.75;2.55;;;;;;;;;;5013446;28;20500;-73
2023/04/25 03:02:49;;;;;;;3.70;3.00;;;;;;;;;;5013132;28;20405;-72
2023/04/25 03:05:14;;;;;;;4.75;2.78;;;;;;;;;;5006208;28;20029;-72
2023/04/25 03:07:40;;;;;;;4.93;2.42;;;;;;;;;;5002489;28;20095;-75
2023/04/25 03:10:06;;;;;;;2.55;1.75;;;;;;;;;;5006114;27;20036;-72
2023/04/25 03:12:32;;;;;;;2.72;1.63;;;;;;;;;;5009380;28;20075;-72
2023/04/25 03:14:57;;;;;;;4.05;2.05;;;;;;;;;;5014251;28;20026;-74
2023/04/25 03:17:22;;;;;;;2.92;1.98;;;;;;;;;;5009688;28;20037;-73
2023/04/25 03:19:48;;;;;;;3.03;1.65;;;;;;;;;;4999705;28;20037;-71
2023/04/25 03:22:13;;;;;;;4.03;1.80;;;;;;;;;;4998855;28;20468;-75
2023/04/25 03:24:38;;;;;;;2.97;1.77;;;;;;;;;;4999026;28;20356;-71
2023/04/25 03:27:04;;;;;;;1.85;1.65;;;;;;;;;;5000684;28;20026;-71
2023/04/25 03:29:29;;;;;;;8.90;7.25;;;;;;;;;;4999419;28;20045;-71
2023/04/25 03:31:54;;;;;;;14.18;9.38;;;;;;;;;;5003559;28;20029;-71
2023/04/25 03:34:21;;;;;;;8.25;5.93;;;;;;;;;;5002241;28;20034;-74
2023/04/25 03:36:46;;;;;;;10.23;6.63;;;;;;;;;;4999181;28;20029;-75
2023/04/25 03:39:12;;;;;;;11.57;7.43;;;;;;;;;;4998164;28;20464;-70
2023/04/25 03:41:37;;;;;;;5.72;4.85;;;;;;;;;;5000992;28;20562;-71
2023/04/25 03:44:02;;;;;;;16.55;7.57;;;;;;;;;;4999985;28;20410;-71
2023/04/25 03:46:28;;;;;;;7.25;5.30;;;;;;;;;;4998832;28;20121;-70
2023/04/25 03:48:53;;;;;;;7.15;4.43;;;;;;;;;;5003986;28;20441;-71
2023/04/25 03:51:18;;;;;;;12.73;7.40;;;;;;;;;;4999492;28;20440;-71
2023/04/25 03:53:44;;;;;;;12.00;8.38;;;;;;;;;;4999025;28;20025;-74
2023/04/25 03:56:09;;;;;;;10.63;7.55;;;;;;;;;;4998927;28;20045;-74
2023/04/25 03:58:34;;;;;;;14.48;13.07;;;;;;;;;;5002642;28;20033;-72
2023/04/25 04:01:00;;;;;;;10.70;9.70;;;;;;;;;;5012082;28;20037;-75
2023/04/25 04:03:25;;;;;;;4.32;3.78;;;;;;;;;;5013148;28;20117;-72
2023/04/25 04:05:51;;;;;;;4.05;3.75;;;;;;;;;;5003776;28;20063;-73
2023/04/25 04:08:16;;;;;;;4.32;2.88;;;;;;;;;;5011385;28;20030;-70
2023/04/25 04:10:42;;;;;;;3.17;2.60;;;;;;;;;;5013863;28;20082;-72
2023/04/25 04:13:07;;;;;;;5.20;3.38;;;;;;;;;;5012963;28;20079;-71
2023/04/25 04:15:32;;;;;;;3.90;3.50;;;;;;;;;;5011578;28;20033;-72
2023/04/25 04:18:02;;;;;;;3.90;3.05;;;;;;;;;;5012839;28;20084;-71
2023/04/25 04:20:27;;;;;;;7.57;5.38;;;;;;;;;;5012318;28;20074;-72
2023/04/25 04:22:52;;;;;;;7.95;5.63;;;;;;;;;;5013845;28;20021;-73
2023/04/25 04:25:18;;;;;;;31.95;21.73;;;;;;;;;;5010635;28;20014;-75
2023/04/25 04:27:44;;;;;;;29.05;18.55;;;;;;;;;;5013582;28;20049;-72
2023/04/25 04:30:10;;;;;;;94.80;59.33;;;;;;;;;;5011983;28;20452;-71
2023/04/25 04:32:37;;;;;;;36.08;25.15;;;;;;;;;;5008669;28;20081;-73
2023/04/25 04:35:04;;;;;;;47.22;35.58;;;;;;;;;;5007399;28;20013;-72
2023/04/25 04:37:29;;;;;;;105.15;82.70;;;;;;;;;;5013111;28;20033;-74
2023/04/25 04:39:55;;;;;;;20.70;18.08;;;;;;;;;;5011435;28;20030;-75
2023/04/25 04:42:21;;;;;;;15.75;13.20;;;;;;;;;;5013765;28;20032;-72
2023/04/25 04:44:46;;;;;;;15.15;11.63;;;;;;;;;;5011534;28;20029;-72
2023/04/25 04:47:12;;;;;;;41.70;34.97;;;;;;;;;;5014469;28;20082;-71
2023/04/25 04:49:37;;;;;;;8.35;7.13;;;;;;;;;;5013502;28;20018;-72
2023/04/25 04:52:03;;;;;;;31.23;27.70;;;;;;;;;;5001959;28;20018;-75
2023/04/25 04:54:28;;;;;;;12.15;10.85;;;;;;;;;;5011252;28;20021;-71
2023/04/25 04:56:54;;;;;;;6.50;5.28;;;;;;;;;;5008083;28;20048;-71
2023/04/25 04:59:19;;;;;;;13.63;8.00;;;;;;;;;;5012911;28;20154;-72
2023/04/25 05:01:46;;;;;;;11.48;9.40;;;;;;;;;;5012419;28;20029;-73
2023/04/25 05:04:12;;;;;;;18.83;14.35;;;;;;;;;;5003376;28;20076;-75
2023/04/25 05:06:37;;;;;;;10.85;8.20;;;;;;;;;;4996526;28;20017;-71
2023/04/25 05:09:03;;;;;;;9.90;6.72;;;;;;;;;;5002528;28;20025;-72
2023/04/25 05:11:28;;;;;;;18.38;16.40;;;;;;;;;;5014338;28;20036;-73
2023/04/25 05:13:54;;;;;;;23.25;17.08;;;;;;;;;;5014011;28;20038;-74
2023/04/25 05:16:20;;;;;;;23.92;19.10;;;;;;;;;;5014782;28;20033;-72
2023/04/25 05:18:45;;;;;;;27.90;22.10;;;;;;;;;;5017031;28;20128;-74
2023/04/25 05:21:11;;;;;;;30.63;23.27;;;;;;;;;;5013558;28;20033;-72
2023/04/25 05:23:36;;;;;;;27.13;23.35;;;;;;;;;;5017244;28;20065;-72
2023/04/25 05:26:02;;;;;;;29.25;25.02;;;;;;;;;;5015313;28;20022;-72
2023/04/25 05:28:27;;;;;;;30.38;26.48;;;;;;;;;;5014788;28;20053;-73
2023/04/25 05:30:52;;;;;;;22.48;19.27;;;;;;;;;;5015516;28;20059;-71
2023/04/25 05:33:18;;;;;;;7.05;6.35;;;;;;;;;;5013359;28;20025;-74
2023/04/25 05:35:43;;;;;;;9.00;8.05;;;;;;;;;;5012822;28;20449;-72
2023/04/25 05:38:09;;;;;;;7.78;6.13;;;;;;;;;;5014215;28;20113;-71
2023/04/25 05:40:34;;;;;;;6.53;5.50;;;;;;;;;;5010693;28;20064;-71
2023/04/25 05:42:59;;;;;;;6.70;5.55;;;;;;;;;;5003817;28;20434;-71
2023/04/25 05:45:25;;;;;;;10.13;7.32;;;;;;;;;;5003162;28;20086;-72
2023/04/25 05:47:50;;;;;;;13.02;6.95;;;;;;;;;;5004258;28;20049;-72
2023/04/25 05:50:16;;;;;;;9.00;6.82;;;;;;;;;;5003447;28;20104;-72
2023/04/25 05:52:41;;;;;;;10.23;6.00;;;;;;;;;;5003165;28;20093;-74
2023/04/25 05:55:07;;;;;;;7.55;5.10;;;;;;;;;;5002371;28;20092;-73
2023/04/25 05:57:32;;;;;;;11.88;6.28;;;;;;;;;;5002947;28;20034;-73
2023/04/25 05:59:57;;;;;;;5.53;3.42;;;;;;;;;;5003211;28;20040;-70
2023/04/25 06:02:23;;;;;;;14.40;4.95;;;;;;;;;;5002351;28;20021;-70
2023/04/25 06:04:52;;;;;;;9.55;8.63;;;;;;;;;;5001351;28;20033;-71
2023/04/25 06:07:17;;;;;;;5.97;5.27;;;;;;;;;;5006271;28;20029;-74
2023/04/25 06:09:43;;;;;;;7.90;6.07;;;;;;;;;;5013889;28;20033;-75
2023/04/25 06:12:08;;;;;;;6.47;4.43;;;;;;;;;;5011530;28;20049;-72
2023/04/25 06:14:34;;;;;;;7.30;5.07;;;;;;;;;;5015412;28;20036;-71
2023/04/25 06:17:05;;;;;;;6.28;4.95;;;;;;;;;;5016798;28;20047;-72
2023/04/25 06:19:31;;;;;;;4.15;3.20;;;;;;;;;;5012533;28;20110;-71
2023/04/25 06:21:56;;;;;;;7.32;6.45;;;;;;;;;;5014795;28;20066;-71
2023/04/25 06:24:22;;;;;;;11.77;9.13;;;;;;;;;;5015537;28;20098;-72
2023/04/25 06:26:47;;;;;;;7.00;6.30;;;;;;;;;;5014850;28;20022;-74
2023/04/25 06:29:12;;;;;;;5.82;3.53;;;;;;;;;;5014353;28;20048;-72
2023/04/25 06:31:38;;;;;;;5.05;2.90;;;;;;;;;;5015068;28;20036;-75
2023/04/25 06:34:03;;;;;;;8.23;3.75;;;;;;;;;;5013781;28;20022;-71
2023/04/25 06:36:28;;;;;;;9.45;5.68;;;;;;;;;;5012359;28;20030;-72
2023/04/25 06:38:54;;;;;;;8.77;4.50;;;;;;;;;;5014635;28;20037;-71
2023/04/25 06:41:20;;;;;;;8.45;5.10;;;;;;;;;;5014891;28;20041;-71
2023/04/25 06:43:45;;;;;;;8.07;5.85;;;;;;;;;;5013183;28;20048;-71
2023/04/25 06:46:11;;;;;;;11.05;8.60;;;;;;;;;;5013326;28;20185;-71
2023/04/25 06:48:36;;;;;;;10.68;6.57;;;;;;;;;;5013087;28;20037;-72
2023/04/25 06:51:01;;;;;;;9.35;5.50;;;;;;;;;;5014176;28;20032;-71
2023/04/25 06:53:27;;;;;;;8.88;4.50;;;;;;;;;;5011326;28;20482;-75
2023/04/25 06:55:52;;;;;;;12.43;4.45;;;;;;;;;;5014514;28;20026;-72
2023/04/25 06:58:17;;;;;;;12.00;2.95;;;;;;;;;;5013679;28;20040;-72
2023/04/25 07:00:43;;;;;;;8.68;2.65;;;;;;;;;;5012969;28;20029;-71
2023/04/25 07:03:08;;;;;;;3.90;2.30;;;;;;;;;;5014020;28;20045;-71
2023/04/25 07:05:33;;;;;;;24.88;9.77;;;;;;;;;;5015092;28;20028;-72
2023/04/25 07:08:00;;;;;;;8.07;3.30;;;;;;;;;;5014435;28;20029;-71
2023/04/25 07:10:25;;;;;;;26.70;17.13;;;;;;;;;;5013425;28;20017;-72
2023/04/25 07:12:51;;;;;;;16.27;12.52;;;;;;;;;;5014024;28;20044;-71
2023/04/25 07:15:16;;;;;;;5.90;3.13;;;;;;;;;;5012733;28;20512;-72
2023/04/25 07:17:42;;;;;;;6.70;4.70;;;;;;;;;;5012332;28;20090;-71
2023/04/25 07:20:09;;;;;;;11.63;6.07;;;;;;;;;;5015466;28;20041;-71
2023/04/25 07:22:34;;;;;;;7.63;4.25;;;;;;;;;;5014529;28;20033;-71
2023/04/25 07:24:59;;;;;;;12.98;4.63;;;;;;;;;;5013889;28;20104;-73
2023/04/25 07:27:25;;;;;;;4.25;2.85;;;;;;;;;;5013891;28;20033;-73
2023/04/25 07:29:50;;;;;;;5.45;3.45;;;;;;;;;;5015783;28;20068;-71
2023/04/25 07:32:15;;;;;;;8.85;5.57;;;;;;;;;;5012843;28;20037;-71
2023/04/25 07:34:41;;;;;;;2.85;2.60;;;;;;;;;;5012002;28;20030;-73
2023/04/25 07:37:07;;;;;;;3.65;2.90;;;;;;;;;;5017473;28;20085;-71
2023/04/25 07:39:33;;;;;;;3.97;3.58;;;;;;;;;;5012609;28;20022;-71
2023/04/25 07:42:00;;;;;;;7.03;5.28;;;;;;;;;;5011736;28;20479;-71
2023/04/25 07:44:25;;;;;;;6.90;3.88;;;;;;;;;;5013390;28;20108;-71
2023/04/25 07:46:51;;;;;;;3.92;2.63;;;;;;;;;;5013979;28;20190;-74
2023/04/25 07:49:16;;;;;;;4.78;2.90;;;;;;;;;;5014106;28;20036;-72
2023/04/25 07:51:43;;;;;;;3.55;2.20;;;;;;;;;;5010409;28;20034;-71
2023/04/25 07:54:09;;;;;;;4.85;2.88;;;;;;;;;;5012546;28;20024;-72
2023/04/25 07:56:34;;;;;;;3.03;2.53;;;;;;;;;;5011786;28;20121;-73
2023/04/25 07:59:00;;;;;;;3.90;3.15;;;;;;;;;;5014293;28;20067;-74
2023/04/25 08:01:26;;;;;;;4.50;2.08;;;;;;;;;;5014737;28;20117;-71
2023/04/25 08:03:52;;;;;;;3.53;1.60;;;;;;;;;;5013044;28;20083;-72
2023/04/25 08:06:17;;;;;;;3.75;1.77;;;;;;;;;;5011643;28;20513;-71
2023/04/25 08:08:43;;;;;;;2.15;1.73;;;;;;;;;;5015035;28;20029;-70
2023/04/25 08:11:08;;;;;;;2.28;1.80;;;;;;;;;;5014220;28;20045;-71
2023/04/25 08:13:33;;;;;;;2.58;1.52;;;;;;;;;;5003322;28;20025;-70
2023/04/25 08:15:59;;;;;;;2.95;1.92;;;;;;;;;;5010864;28;20037;-74
2023/04/25 08:18:24;;;;;;;1.60;1.42;;;;;;;;;;5013657;28;20033;-71
2023/04/25 08:20:50;;;;;;;3.33;1.80;;;;;;;;;;5012793;28;20120;-73
2023/04/25 08:23:15;;;;;;;3.33;2.50;;;;;;;;;;5011437;28;20770;-70
2023/04/25 08:25:41;;;;;;;3.63;1.70;;;;;;;;;;5012433;28;20447;-71
2023/04/25 08:28:06;;;;;;;2.47;1.45;;;;;;;;;;5013366;28;20153;-70
2023/04/25 08:30:31;;;;;;;7.00;3.95;;;;;;;;;;5012465;28;20029;-71
2023/04/25 08:32:57;;;;;;;4.40;3.03;;;;;;;;;;5010124;28;20029;-70
2023/04/25 08:35:23;;;;;;;5.05;2.70;;;;;;;;;;5013138;28;20313;-70
2023/04/25 08:37:49;;;;;;;5.10;3.88;;;;;;;;;;5012142;28;20033;-70
2023/04/25 08:40:15;;;;;;;6.93;4.78;;;;;;;;;;5013021;28;20487;-71
2023/04/25 08:42:44;;;;;;;7.40;6.05;;;;;;;;;;5012360;28;20484;-73
2023/04/25 08:45:10;;;;;;;5.18;2.13;;;;;;;;;;5017901;28;20117;-70
2023/04/25 08:47:37;;;;;;;8.55;2.90;;;;;;;;;;5017122;28;20124;-71
2023/04/25 08:50:03;;;;;;;8.60;4.93;;;;;;;;;;5013661;28;20041;-71
2023/04/25 08:52:32;;;;;;;2.35;1.63;;;;;;;;;;5017060;28;20108;-71
2023/04/25 08:54:58;;;;;;;3.05;2.50;;;;;;;;;;5016536;28;20419;-70
2023/04/25 08:57:24;;;;;;;2.90;2.50;;;;;;;;;;5015372;28;20061;-71
2023/04/25 08:59:50;;;;;;;4.30;2.55;;;;;;;;;;5017624;28;20451;-71
2023/04/25 09:02:17;;;;;;;1.38;1.10;;;;;;;;;;5011061;28;20028;-71
2023/04/25 09:04:43;;;;;;;1.80;1.25;;;;;;;;;;5010385;28;20021;-71
2023/04/25 09:07:09;;;;;;;1.88;1.27;;;;;;;;;;5013987;28;20090;-71
2023/04/25 09:09:35;;;;;;;3.13;1.85;;;;;;;;;;5015600;28;20407;-70
2023/04/25 09:12:01;;;;;;;1.60;1.50;;;;;;;;;;5016267;28;20071;-74
2023/04/25 09:14:27;;;;;;;1.48;1.33;;;;;;;;;;5010550;28;20025;-73
2023/04/25 09:16:55;;;;;;;2.85;1.77;;;;;;;;;;5011590;28;20356;-71
2023/04/25 09:19:25;;;;;;;2.40;1.95;;;;;;;;;;5015021;28;20041;-74
2023/04/25 09:21:53;;;;;;;5.60;3.83;;;;;;;;;;5016153;28;20026;-75
2023/04/25 09:24:30;;;;;;;10.40;7.20;;;;;;;;;;5017233;28;20033;-71
2023/04/25 09:26:55;;;;;;;8.38;7.32;;;;;;;;;;5016028;28;20035;-70
2023/04/25 09:29:28;;;;;;;11.80;8.00;;;;;;;;;;5014590;28;20050;-71
2023/04/25 09:32:05;;;;;;;14.82;10.05;;;;;;;;;;5012516;28;20037;-71
2023/04/25 09:34:38;;;;;;;13.75;9.93;;;;;;;;;;5004564;28;20467;-74
2023/04/25 09:37:03;;;;;;;15.73;10.02;;;;;;;;;;5013174;28;20048;-71
2023/04/25 09:39:29;;;;;;;9.40;5.78;;;;;;;;;;5016257;28;20037;-71
2023/04/25 09:41:54;;;;;;;16.75;9.38;;;;;;;;;;5013740;28;20033;-71
2023/04/25 09:44:23;;;;;;;15.30;9.65;;;;;;;;;;5009254;28;20026;-71
2023/04/25 09:46:52;;;;;;;5.65;3.97;;;;;;;;;;5005589;28;20026;-69
2023/04/25 09:49:18;;;;;;;;;;;;;;;;;;5002392;28;20026;-72
2023/04/25 09:51:53;;;;;;;3.60;2.50;;;;;;;;;;5002568;28;19913;-70
2023/04/25 09:54:18;;;;;;;3.83;2.78;;;;;;;;;;5009502;28;20263;-69
2023/04/25 09:56:47;;;;;;;9.75;6.18;;;;;;;;;;5014677;28;20040;-73
2023/04/25 09:59:13;;;;;;;5.03;3.50;;;;;;;;;;5015267;28;20035;-70
2023/04/25 10:01:40;;;;;;;4.80;3.78;;;;;;;;;;5014679;28;20376;-70
2023/04/25 10:04:06;;;;;;;3.33;2.90;;;;;;;;;;5014594;28;20029;-71
2023/04/25 10:06:34;;;;;;;3.58;2.78;;;;;;;;;;5013739;28;20017;-70
2023/04/25 10:09:00;;;;;;;4.47;3.97;;;;;;;;;;5011768;28;20117;-70
2023/04/25 10:11:26;;;;;;;7.70;5.00;;;;;;;;;;5015651;28;20117;-70
2023/04/25 10:13:52;;;;;;;2.63;2.42;;;;;;;;;;5014867;28;20432;-70
2023/04/25 10:16:17;;;;;;;6.32;5.57;;;;;;;;;;5016405;28;20021;-69
2023/04/25 10:18:43;;;;;;;12.40;9.02;;;;;;;;;;5014946;28;20048;-70
2023/04/25 10:21:08;;;;;;;14.43;10.77;;;;;;;;;;5014921;28;20030;-70
2023/04/25 10:23:34;;;;;;;16.90;12.07;;;;;;;;;;5012401;28;20034;-69
2023/04/25 10:26:00;;;;;;;5.38;4.80;;;;;;;;;;5015156;28;20445;-72
2023/04/25 10:28:26;;;;;;;3.50;3.20;;;;;;;;;;5011776;28;20060;-72
2023/04/25 10:31:02;;;;;;;4.95;4.00;;;;;;;;;;5012990;28;20025;-71
2023/04/25 10:33:37;;;;;;;3.80;3.50;;;;;;;;;;5013374;28;20040;-75
2023/04/25 10:36:17;;;;;;;5.20;4.70;;;;;;;;;;5013690;28;20028;-70
2023/04/25 10:38:42;;;;;;;7.45;6.15;;;;;;;;;;5013814;28;20022;-69
2023/04/25 10:41:09;;;;;;;4.72;4.43;;;;;;;;;;5012199;28;22988;-69
2023/04/25 10:43:38;;;;;;;5.85;5.32;;;;;;;;;;5015197;28;20448;-74
2023/04/25 10:46:21;;;;;;;5.85;5.35;;;;;;;;;;5014704;28;20036;-70
2023/04/25 10:48:53;;;;;;;6.95;6.45;;;;;;;;;;5012076;28;20034;-70
2023/04/25 10:51:23;;;;;;;5.30;4.80;;;;;;;;;;5013653;28;20025;-70
2023/04/25 10:53:59;;;;;;;8.05;7.25;;;;;;;;;;5013414;28;20061;-71
2023/04/25 10:56:26;;;;;;;17.17;14.52;;;;;;;;;;5014321;28;20033;-72
2023/04/25 10:58:51;;;;;;;30.70;27.50;;;;;;;;;;5015488;28;20349;-70
2023/04/25 11:01:20;;;;;;;6.30;5.80;;;;;;;;;;5013384;28;20643;-71
2023/04/25 11:03:50;;;;;;;8.38;7.70;;;;;;;;;;5013761;28;20022;-70
2023/04/25 11:06:20;;;;;;;9.30;8.48;;;;;;;;;;5015507;28;20033;-70
2023/04/25 11:08:49;;;;;;;7.22;6.63;;;;;;;;;;5012127;28;20185;-72
2023/04/25 11:11:16;;;;;;;10.77;9.68;;;;;;;;;;5014166;28;20333;-72
2023/04/25 11:13:41;;;;;;;14.98;13.48;;;;;;;;;;5014681;28;20057;-72
2023/04/25 11:16:07;;;;;;;12.45;11.35;;;;;;;;;;5010638;28;20441;-69
2023/04/25 11:18:34;;;;;;;15.15;10.65;;;;;;;;;;5012732;28;20334;-70
2023/04/25 11:20:59;;;;;;;12.63;11.63;;;;;;;;;;5013470;28;20041;-70
2023/04/25 11:23:26;;;;;;;12.32;11.20;;;;;;;;;;5013951;28;20030;-74
2023/04/25 11:25:52;;;;;;;14.15;12.88;;;;;;;;;;5012278;28;20034;-72
2023/04/25 11:28:21;;;;;;;13.55;12.30;;;;;;;;;;5014873;28;20050;-70
2023/04/25 11:30:50;;;;;;;14.32;13.02;;;;;;;;;;5014944;28;20097;-73
2023/04/25 11:33:16;;;;;;;13.65;12.27;;;;;;;;;;5013255;28;20021;-70
2023/04/25 11:35:41;;;;;;;14.73;13.27;;;;;;;;;;5014437;28;20443;-71
2023/04/25 11:38:06;;;;;;;17.15;15.65;;;;;;;;;;5013609;28;20144;-73
2023/04/25 11:40:32;;;;;;;19.30;17.40;;;;;;;;;;5014048;28;20033;-71
2023/04/25 11:42:59;;;;;;;19.83;17.85;;;;;;;;;;5012224;28;20498;-70
2023/04/25 11:45:25;;;;;;;25.15;22.70;;;;;;;;;;5014741;28;20017;-69
2023/04/25 11:47:50;;;;;;;22.60;20.40;;;;;;;;;;5011838;28;20086;-71
2023/04/25 11:50:15;;;;;;;17.63;16.02;;;;;;;;;;5014329;28;20487;-73
2023/04/25 11:52:42;;;;;;;17.60;15.90;;;;;;;;;;5014155;28;20368;-71
2023/04/25 11:55:08;;;;;;;20.40;18.50;;;;;;;;;;5012492;28;20152;-70
2023/04/25 11:57:34;;;;;;;22.10;20.02;;;;;;;;;;5012663;28;20493;-70
2023/04/25 12:00:10;;;;;;;16.05;14.55;;;;;;;;;;5014015;28;20038;-70
2023/04/25 12:02:36;;;;;;;15.48;14.07;;;;;;;;;;5013891;28;20049;-70
2023/04/25 12:05:03;;;;;;;16.85;14.18;;;;;;;;;;5014257;28;20135;-74
2023/04/25 12:07:31;;;;;;;14.73;13.32;;;;;;;;;;5013938;28;20056;-69
2023/04/25 12:09:56;;;;;;;13.40;12.10;;;;;;;;;;5014066;28;20743;-69
2023/04/25 12:12:26;;;;;;;11.85;10.75;;;;;;;;;;5014175;28;20033;-70
2023/04/25 12:14:52;;;;;;;11.63;10.65;;;;;;;;;;5013346;28;20468;-71
2023/04/25 12:17:17;;;;;;;10.55;9.65;;;;;;;;;;5011435;28;20112;-70
2023/04/25 12:19:44;;;;;;;12.40;11.20;;;;;;;;;;5016607;28;20040;-73
2023/04/25 12:22:19;;;;;;;12.32;10.30;;;;;;;;;;5017088;28;20398;-70
2023/04/25 12:24:45;;;;;;;12.15;11.15;;;;;;;;;;5013993;28;20030;-71
2023/04/25 12:27:10;;;;;;;7.30;6.78;;;;;;;;;;5016511;28;20110;-70
2023/04/25 12:29:36;;;;;;;9.75;8.85;;;;;;;;;;5015635;28;20537;-74
2023/04/25 12:32:01;;;;;;;7.20;6.65;;;;;;;;;;5018667;28;20033;-70
2023/04/25 12:34:27;;;;;;;8.15;7.45;;;;;;;;;;5014515;28;21020;-69
2023/04/25 12:36:52;;;;;;;8.68;7.88;;;;;;;;;;5016785;28;20501;-70
2023/04/25 12:39:22;;;;;;;9.30;8.50;;;;;;;;;;5015771;28;20034;-71
2023/04/25 12:41:48;;;;;;;9.45;8.65;;;;;;;;;;5018335;28;20639;-71
2023/04/25 12:44:13;;;;;;;10.10;9.05;;;;;;;;;;5017142;28;20025;-71
2023/04/25 12:46:40;;;;;;;10.23;9.15;;;;;;;;;;5015445;28;20029;-70
2023/04/25 12:49:07;;;;;;;7.20;6.60;;;;;;;;;;5015233;28;20341;-74
2023/04/25 12:51:32;;;;;;;7.38;6.78;;;;;;;;;;5017147;28;20360;-70
2023/04/25 12:53:58;;;;;;;7.22;6.63;;;;;;;;;;5015317;28;20030;-71
2023/04/25 12:56:24;;;;;;;6.53;5.93;;;;;;;;;;5015179;28;20036;-71
2023/04/25 12:58:49;;;;;;;13.80;10.57;;;;;;;;;;5015666;28;20070;-74
2023/04/25 13:01:15;;;;;;;10.93;9.82;;;;;;;;;;5014752;28;20420;-71
2023/04/25 13:03:40;;;;;;;9.75;8.85;;;;;;;;;;5016213;28;20120;-71
2023/04/25 13:06:06;;;;;;;10.77;9.68;;;;;;;;;;5016872;28;20109;-74
2023/04/25 13:08:31;;;;;;;22.88;17.42;;;;;;;;;;5016330;28;20045;-73
2023/04/25 13:10:57;;;;;;;12.40;11.05;;;;;;;;;;5016020;28;20065;-71
2023/04/25 13:13:22;;;;;;;12.60;11.30;;;;;;;;;;5015285;28;20034;-74
2023/04/25 13:15:47;;;;;;;14.27;12.82;;;;;;;;;;5009241;28;20030;-74
2023/04/25 13:18:13;;;;;;;22.98;19.25;;;;;;;;;;5000884;28;20036;-70
2023/04/25 13:20:38;;;;;;;17.83;14.73;;;;;;;;;;5015507;28;20501;-70
2023/04/25 13:23:03;;;;;;;23.98;20.33;;;;;;;;;;5016167;28;20101;-73
2023/04/25 13:25:29;;;;;;;38.58;29.90;;;;;;;;;;5014160;28;20033;-74
2023/04/25 13:27:54;;;;;;;26.20;21.38;;;;;;;;;;5010894;28;20136;-71
2023/04/25 13:30:20;;;;;;;43.00;30.25;;;;;;;;;;5010460;28;20372;-72
2023/04/25 13:32:46;;;;;;;13.27;12.07;;;;;;;;;;5014925;28;20044;-74
2023/04/25 13:35:12;;;;;;;19.08;16.33;;;;;;;;;;5013764;28;20037;-70
2023/04/25 13:37:38;;;;;;;13.68;12.07;;;;;;;;;;5016280;28;20070;-70
2023/04/25 13:40:05;;;;;;;19.67;15.73;;;;;;;;;;5015218;28;20507;-75
2023/04/25 13:42:31;;;;;;;23.77;20.25;;;;;;;;;;5015937;28;20030;-73
2023/04/25 13:44:56;;;;;;;15.82;14.13;;;;;;;;;;5014989;28;20040;-70
2023/04/25 13:47:23;;;;;;;17.80;16.02;;;;;;;;;;5017255;28;20029;-71
2023/04/25 13:49:48;;;;;;;12.68;11.48;;;;;;;;;;5015045;28;20033;-70
2023/04/25 13:52:13;;;;;;;12.95;11.73;;;;;;;;;;5015152;28;20115;-74
2023/04/25 13:54:39;;;;;;;9.68;8.60;;;;;;;;;;5011381;28;20452;-71
2023/04/25 13:57:05;;;;;;;9.35;8.32;;;;;;;;;;5002312;28;20050;-70
2023/04/25 13:59:30;;;;;;;13.70;12.40;;;;;;;;;;5006432;28;20365;-70
2023/04/25 14:01:55;;;;;;;9.18;8.38;;;;;;;;;;5004963;28;20025;-73
2023/04/25 14:04:21;;;;;;;11.50;10.10;;;;;;;;;;5004688;28;20507;-70
2023/04/25 14:06:46;;;;;;;8.85;8.10;;;;;;;;;;5015717;28;20034;-71
2023/04/25 14:09:13;;;;;;;12.25;10.93;;;;;;;;;;5004942;28;20058;-70
2023/04/25 14:11:38;;;;;;;13.40;12.00;;;;;;;;;;5011793;28;20095;-71
2023/04/25 14:14:03;;;;;;;17.40;12.75;;;;;;;;;;5014401;28;20022;-72
2023/04/25 14:16:30;;;;;;;22.52;17.38;;;;;;;;;;5015422;28;20412;-70
2023/04/25 14:18:56;;;;;;;17.45;15.40;;;;;;;;;;5014557;28;20115;-70
2023/04/25 14:21:21;;;;;;;12.05;10.95;;;;;;;;;;5014106;28;20452;-70
2023/04/25 14:23:46;;;;;;;24.27;21.67;;;;;;;;;;5004197;28;20052;-70
2023/04/25 14:26:12;;;;;;;16.65;14.85;;;;;;;;;;5013661;28;20108;-70